createdAt,value
2019-04-29T00:01:59.637Z,99.90
2019-04-29T00:04:29.258Z,99.90
2019-04-29T00:06:59.276Z,99.90
2019-04-29T00:09:30.972Z,99.90
2019-04-29T00:12:00.444Z,99.90
2019-04-29T00:14:31.010Z,99.90
2019-04-29T00:17:05.267Z,99.90
2019-04-29T00:19:51.468Z,99.90
2019-04-29T00:22:21.032Z,99.90
2019-04-29T00:24:50.598Z,99.90
2019-04-29T00:27:20.306Z,99.90
2019-04-29T00:29:50.197Z,99.90
2019-04-29T00:32:19.769Z,99.90
2019-04-29T00:34:49.316Z,99.90
2019-04-29T00:37:28.758Z,99.90
2019-04-29T00:39:59.951Z,99.90
2019-04-29T00:42:38.410Z,99.90
2019-04-29T00:45:09.156Z,99.90
2019-04-29T00:47:38.710Z,99.90
2019-04-29T00:50:08.876Z,99.90
2019-04-29T00:52:38.426Z,99.90
2019-04-29T00:55:10.013Z,99.90
2019-04-29T00:57:39.569Z,99.90
2019-04-29T01:00:12.682Z,99.90
2019-04-29T01:02:42.413Z,99.90
2019-04-29T01:05:14.375Z,99.90
2019-04-29T01:07:43.999Z,99.90
2019-04-29T01:10:13.983Z,99.90
2019-04-29T01:12:43.702Z,99.90
2019-04-29T01:15:13.662Z,99.90
2019-04-29T01:17:43.371Z,99.90
2019-04-29T01:20:13.254Z,99.90
2019-04-29T01:22:43.710Z,99.90
2019-04-29T01:25:13.728Z,99.90
2019-04-29T01:27:47.870Z,99.90
2019-04-29T01:30:54.865Z,99.90
2019-04-29T01:33:24.996Z,99.90
2019-04-29T01:36:12.516Z,99.90
2019-04-29T01:38:42.227Z,99.90
2019-04-29T01:41:13.420Z,99.90
2019-04-29T01:44:00.772Z,99.90
2019-04-29T01:46:31.207Z,99.90
2019-04-29T01:49:00.794Z,99.90
2019-04-29T01:51:30.417Z,99.90
2019-04-29T01:54:00.038Z,99.90
2019-04-29T01:56:29.588Z,99.90
2019-04-29T01:58:59.343Z,99.90
2019-04-29T02:01:28.895Z,99.90
2019-04-29T02:03:58.446Z,99.90
2019-04-29T02:06:28.414Z,99.90
2019-04-29T02:08:57.985Z,99.90
2019-04-29T02:11:27.531Z,99.90
2019-04-29T02:13:57.159Z,99.90
2019-04-29T02:16:26.711Z,99.90
2019-04-29T02:18:56.265Z,99.90
2019-04-29T02:21:26.390Z,99.90
2019-04-29T02:23:57.598Z,99.90
2019-04-29T02:26:28.181Z,99.90
2019-04-29T02:28:57.742Z,99.90
2019-04-29T02:31:40.973Z,99.90
2019-04-29T02:34:10.667Z,99.90
2019-04-29T02:36:40.744Z,99.90
2019-04-29T02:39:12.217Z,99.90
2019-04-29T02:41:52.649Z,99.90
2019-04-29T02:44:22.357Z,99.90
2019-04-29T02:46:52.063Z,99.90
2019-04-29T02:49:21.774Z,99.90
2019-04-29T02:51:54.284Z,99.90
2019-04-29T02:54:25.497Z,99.90
2019-04-29T02:57:05.370Z,99.90
2019-04-29T02:59:40.073Z,99.90
2019-04-29T03:02:13.667Z,99.90
2019-04-29T03:05:01.739Z,99.90
2019-04-29T03:07:31.281Z,99.90
2019-04-29T03:10:01.670Z,99.90
2019-04-29T03:12:31.280Z,99.90
2019-04-29T03:15:01.682Z,99.90
2019-04-29T03:17:31.868Z,99.90
2019-04-29T03:20:21.575Z,99.90
2019-04-29T03:22:53.640Z,99.90
2019-04-29T03:25:23.177Z,99.90
2019-04-29T03:27:53.344Z,99.90
2019-04-29T03:30:22.956Z,99.90
2019-04-29T03:32:52.507Z,99.90
2019-04-29T03:35:22.128Z,99.90
2019-04-29T03:37:51.765Z,99.90
2019-04-29T03:40:21.320Z,99.90
2019-04-29T03:42:51.389Z,99.90
2019-04-29T03:45:21.367Z,99.90
2019-04-29T03:47:51.404Z,99.90
2019-04-29T03:50:20.965Z,99.90
2019-04-29T03:52:50.708Z,99.90
2019-04-29T03:55:37.680Z,99.90
2019-04-29T03:57:51.686Z,99.90
2019-04-29T04:00:44.450Z,99.90
2019-04-29T04:03:18.966Z,99.90
2019-04-29T04:05:50.153Z,99.90
2019-04-29T04:08:30.203Z,99.90
2019-04-29T04:10:59.817Z,99.90
2019-04-29T04:13:29.417Z,99.90
2019-04-29T04:15:58.938Z,99.90
2019-04-29T04:18:30.322Z,99.90
2019-04-29T04:21:00.234Z,99.90
2019-04-29T04:23:29.770Z,99.90
2019-04-29T04:25:59.335Z,99.90
2019-04-29T04:28:29.134Z,99.90
2019-04-29T04:30:58.688Z,99.90
2019-04-29T04:33:28.244Z,99.90
2019-04-29T04:35:57.870Z,99.90
2019-04-29T04:38:27.784Z,99.90
2019-04-29T04:41:04.637Z,99.90
2019-04-29T04:43:35.128Z,99.90
2019-04-29T04:46:04.657Z,99.90
2019-04-29T04:48:34.816Z,99.90
2019-04-29T04:51:04.505Z,99.90
2019-04-29T04:53:34.220Z,99.90
2019-04-29T04:56:04.112Z,99.90
2019-04-29T04:58:34.323Z,99.90
2019-04-29T05:01:03.891Z,99.90
2019-04-29T05:03:33.432Z,99.90
2019-04-29T05:06:03.578Z,99.90
2019-04-29T05:08:33.119Z,99.90
2019-04-29T05:11:02.855Z,99.90
2019-04-29T05:13:32.936Z,99.90
2019-04-29T05:16:02.518Z,99.90
2019-04-29T05:18:32.330Z,99.90
2019-04-29T05:21:01.881Z,99.90
2019-04-29T05:23:31.439Z,99.90
2019-04-29T05:26:02.289Z,99.90
2019-04-29T05:28:31.841Z,99.90
2019-04-29T05:31:01.393Z,99.90
2019-04-29T05:33:32.213Z,99.90
2019-04-29T05:36:11.904Z,99.90
2019-04-29T05:38:43.226Z,99.90
2019-04-29T05:41:12.831Z,99.90
2019-04-29T05:43:42.378Z,99.90
2019-04-29T05:46:17.398Z,99.90
2019-04-29T05:48:45.046Z,99.90
2019-04-29T05:51:32.295Z,99.90
2019-04-29T05:54:06.219Z,99.90
2019-04-29T05:56:35.769Z,99.90
2019-04-29T05:59:08.554Z,99.90
2019-04-29T06:01:37.273Z,99.90
2019-04-29T06:04:07.125Z,99.90
2019-04-29T06:06:36.684Z,99.90
2019-04-29T06:09:11.768Z,99.90
2019-04-29T06:11:40.066Z,99.90
2019-04-29T06:14:09.696Z,99.90
2019-04-29T06:16:39.649Z,99.90
2019-04-29T06:19:09.204Z,99.90
2019-04-29T06:21:38.937Z,99.90
2019-04-29T06:24:08.486Z,99.90
2019-04-29T06:26:38.044Z,99.90
2019-04-29T06:29:08.042Z,99.90
2019-04-29T06:31:37.583Z,99.90
2019-04-29T06:34:07.216Z,99.90
2019-04-29T06:36:36.893Z,99.90
2019-04-29T06:39:08.247Z,99.90
2019-04-29T06:41:40.616Z,99.90
2019-04-29T06:44:15.982Z,99.90
2019-04-29T06:46:40.443Z,99.90
2019-04-29T06:49:10.953Z,99.90
2019-04-29T06:51:40.773Z,99.90
2019-04-29T06:54:10.330Z,99.90
2019-04-29T06:56:39.883Z,99.90
2019-04-29T06:59:12.084Z,99.90
2019-04-29T07:01:41.096Z,99.90
2019-04-29T07:04:10.656Z,99.90
2019-04-29T07:06:40.302Z,99.90
2019-04-29T07:09:09.900Z,99.90
2019-04-29T07:11:39.714Z,99.90
2019-04-29T07:14:09.330Z,99.90
2019-04-29T07:16:39.210Z,99.90
2019-04-29T07:19:08.754Z,99.90
2019-04-29T07:21:41.796Z,99.90
2019-04-29T07:24:09.974Z,99.90
2019-04-29T07:26:39.541Z,99.90
2019-04-29T07:29:09.382Z,99.90
2019-04-29T07:31:38.937Z,99.90
2019-04-29T07:34:08.698Z,99.90
2019-04-29T07:36:38.414Z,99.90
2019-04-29T07:39:09.440Z,99.90
2019-04-29T07:41:39.009Z,99.90
2019-04-29T07:44:08.850Z,99.90
2019-04-29T07:46:56.841Z,99.90
2019-04-29T07:49:23.631Z,99.90
2019-04-29T07:51:54.357Z,99.90
2019-04-29T07:54:23.924Z,99.90
2019-04-29T07:56:53.489Z,99.90
2019-04-29T07:59:23.287Z,99.90
2019-04-29T08:01:55.588Z,99.90
2019-04-29T08:04:24.283Z,99.90
2019-04-29T08:06:55.266Z,99.90
2019-04-29T08:09:25.446Z,99.90
2019-04-29T08:11:55.719Z,99.90
2019-04-29T08:14:29.143Z,99.90
2019-04-29T08:16:58.710Z,99.90
2019-04-29T08:19:29.468Z,99.90
2019-04-29T08:21:59.611Z,99.90
2019-04-29T08:24:29.795Z,99.90
2019-04-29T08:26:59.364Z,99.90
2019-04-29T08:29:30.730Z,99.90
2019-04-29T08:32:02.574Z,99.90
2019-04-29T08:34:32.115Z,99.90
2019-04-29T08:37:01.839Z,99.90
2019-04-29T08:39:31.560Z,99.90
2019-04-29T08:42:03.748Z,99.90
2019-04-29T08:44:54.714Z,99.90
2019-04-29T08:47:30.436Z,99.90
2019-04-29T08:49:58.233Z,99.90
2019-04-29T08:52:27.803Z,99.90
2019-04-29T08:54:57.465Z,99.90
2019-04-29T08:57:27.074Z,99.90
2019-04-29T08:59:56.632Z,99.90
2019-04-29T09:02:34.416Z,99.90
2019-04-29T09:04:57.621Z,99.90
2019-04-29T09:07:27.161Z,99.90
2019-04-29T09:10:01.826Z,99.90
2019-04-29T09:12:29.522Z,95.70
2019-04-29T09:14:59.466Z,93.50
2019-04-29T09:17:29.098Z,92.60
2019-04-29T09:19:59.850Z,91.90
2019-04-29T09:22:31.668Z,94.90
2019-04-29T09:25:11.783Z,91.40
2019-04-29T09:27:45.030Z,93.80
2019-04-29T09:30:17.316Z,93.70
2019-04-29T09:32:46.876Z,96.20
2019-04-29T09:35:17.191Z,95.60
2019-04-29T09:37:46.891Z,91.90
2019-04-29T09:40:27.805Z,93.70
2019-04-29T09:43:14.550Z,96.10
2019-04-29T09:45:53.916Z,98.40
2019-04-29T09:48:22.405Z,96.00
2019-04-29T09:50:52.003Z,92.10
2019-04-29T09:53:21.686Z,96.20
2019-04-29T09:55:51.400Z,97.00
2019-04-29T09:58:20.999Z,93.60
2019-04-29T10:01:13.909Z,84.00
2019-04-29T10:03:55.237Z,75.60
2019-04-29T10:06:26.728Z,71.00
2019-04-29T10:08:56.441Z,76.80
2019-04-29T10:11:26.063Z,85.90
2019-04-29T10:13:56.281Z,81.40
2019-04-29T10:16:36.059Z,69.40
2019-04-29T10:19:07.152Z,63.70
2019-04-29T10:21:37.068Z,61.20
2019-04-29T10:24:07.511Z,67.20
2019-04-29T10:26:37.297Z,71.80
2019-04-29T10:29:08.671Z,74.00
2019-04-29T10:31:38.383Z,80.00
2019-04-29T10:34:09.128Z,88.20
2019-04-29T10:36:39.601Z,90.70
2019-04-29T10:39:30.579Z,85.20
2019-04-29T10:42:04.873Z,87.30
2019-04-29T10:44:39.043Z,89.80
2019-04-29T10:47:30.726Z,92.60
2019-04-29T10:50:05.130Z,95.10
2019-04-29T10:52:38.652Z,97.40
2019-04-29T10:55:08.973Z,97.80
2019-04-29T10:57:39.047Z,95.90
2019-04-29T11:00:23.567Z,90.50
2019-04-29T11:02:53.580Z,77.30
2019-04-29T11:05:30.663Z,67.50
2019-04-29T11:08:04.374Z,73.30
2019-04-29T11:10:34.263Z,84.60
2019-04-29T11:13:04.423Z,90.80
2019-04-29T11:15:35.751Z,90.30
2019-04-29T11:18:06.724Z,87.20
2019-04-29T11:20:36.763Z,79.50
2019-04-29T11:23:16.610Z,81.90
2019-04-29T11:26:02.529Z,86.20
2019-04-29T11:28:32.380Z,90.30
2019-04-29T11:31:01.998Z,88.90
2019-04-29T11:33:35.591Z,85.70
2019-04-29T11:36:05.908Z,86.30
2019-04-29T11:38:38.335Z,86.20
2019-04-29T11:41:12.096Z,83.70
2019-04-29T11:43:39.159Z,85.40
2019-04-29T11:46:09.897Z,86.30
2019-04-29T11:48:40.475Z,88.40
2019-04-29T11:51:17.366Z,89.90
2019-04-29T11:53:47.453Z,91.20
2019-04-29T11:56:17.017Z,91.70
2019-04-29T11:58:51.018Z,92.20
2019-04-29T12:01:42.941Z,91.70
2019-04-29T12:04:33.414Z,90.80
2019-04-29T12:07:02.476Z,90.10
2019-04-29T12:09:32.418Z,90.30
2019-04-29T12:12:02.280Z,91.10
2019-04-29T12:14:39.450Z,91.20
2019-04-29T12:17:20.955Z,91.10
2019-04-29T12:19:55.080Z,91.00
2019-04-29T12:22:30.027Z,91.10
2019-04-29T12:24:56.021Z,91.60
2019-04-29T12:27:28.956Z,92.10
2019-04-29T12:29:59.433Z,92.00
2019-04-29T12:32:32.624Z,89.80
2019-04-29T12:35:06.776Z,88.00
2019-04-29T12:37:36.480Z,89.20
2019-04-29T12:40:14.506Z,88.40
2019-04-29T12:43:03.540Z,88.70
2019-04-29T12:45:49.776Z,90.10
2019-04-29T12:48:24.837Z,90.50
2019-04-29T12:50:55.177Z,90.50
2019-04-29T12:53:22.043Z,90.20
2019-04-29T12:55:53.937Z,88.80
2019-04-29T12:58:25.619Z,90.00
2019-04-29T13:01:00.955Z,90.30
2019-04-29T13:03:39.527Z,90.30
2019-04-29T13:06:09.446Z,90.00
2019-04-29T13:08:40.951Z,90.70
2019-04-29T13:11:10.667Z,89.20
2019-04-29T13:13:40.504Z,89.00
2019-04-29T13:16:21.798Z,88.80
2019-04-29T13:19:11.883Z,89.40
2019-04-29T13:21:39.803Z,89.80
2019-04-29T13:24:22.539Z,89.50
2019-04-29T13:26:42.991Z,90.80
2019-04-29T13:29:26.370Z,90.70
2019-04-29T13:31:43.706Z,90.40
2019-04-29T13:34:24.207Z,90.40
2019-04-29T13:37:05.473Z,90.70
2019-04-29T13:39:17.733Z,91.20
2019-04-29T13:41:57.326Z,91.00
2019-04-29T13:44:19.679Z,90.60
2019-04-29T13:47:07.200Z,90.30
2019-04-29T13:49:38.657Z,90.40
2019-04-29T13:52:08.750Z,91.60
2019-04-29T13:54:42.389Z,91.20
2019-04-29T13:57:15.688Z,91.30
2019-04-29T13:59:49.246Z,91.30
2019-04-29T14:02:22.700Z,90.70
2019-04-29T14:05:00.185Z,90.10
2019-04-29T14:07:29.040Z,90.10
2019-04-29T14:09:58.598Z,90.40
2019-04-29T14:15:00.303Z,90.70
2019-04-29T14:17:31.757Z,90.60
2019-04-29T14:20:01.700Z,91.30
2019-04-29T14:22:31.239Z,90.80
2019-04-29T14:25:01.522Z,91.40
2019-04-29T14:27:31.064Z,92.00
2019-04-29T14:30:02.895Z,91.40
2019-04-29T14:32:35.904Z,91.30
2019-04-29T14:35:07.251Z,91.60
2019-04-29T14:37:37.747Z,91.80
2019-04-29T14:40:10.822Z,91.90
2019-04-29T14:42:57.413Z,92.30
2019-04-29T14:45:38.913Z,92.30
2019-04-29T14:48:13.667Z,92.60
2019-04-29T14:50:44.931Z,93.00
2019-04-29T14:53:14.498Z,93.10
2019-04-29T14:55:44.540Z,93.40
2019-04-29T14:58:14.409Z,92.60
2019-04-29T15:00:50.014Z,92.70
2019-04-29T15:03:22.075Z,92.70
2019-04-29T15:05:51.671Z,92.80
2019-04-29T15:08:22.073Z,93.40
2019-04-29T15:10:53.611Z,94.10
2019-04-29T15:13:25.197Z,94.60
2019-04-29T15:16:14.113Z,95.20
2019-04-29T15:18:49.699Z,95.70
2019-04-29T15:21:31.513Z,96.00
2019-04-29T15:23:51.628Z,96.30
2019-04-29T15:26:21.179Z,96.60
2019-04-29T15:28:54.735Z,96.60
2019-04-29T15:31:25.371Z,96.60
2019-04-29T15:33:55.163Z,96.80
2019-04-29T15:36:24.720Z,96.80
2019-04-29T15:39:08.659Z,97.40
2019-04-29T15:41:31.147Z,97.50
2019-04-29T15:44:07.080Z,98.00
2019-04-29T15:46:31.381Z,98.50
2019-04-29T15:49:00.805Z,99.30
2019-04-29T15:51:30.373Z,99.90
2019-04-29T15:54:01.641Z,99.90
2019-04-29T15:56:33.664Z,99.90
2019-04-29T15:59:08.078Z,99.90
2019-04-29T16:01:34.251Z,99.90
2019-04-29T16:04:05.583Z,99.90
2019-04-29T16:06:42.560Z,99.90
2019-04-29T16:09:23.576Z,99.90
2019-04-29T16:12:13.972Z,99.90
2019-04-29T16:14:39.293Z,99.90
2019-04-29T16:17:08.857Z,99.90
2019-04-29T16:19:38.670Z,99.90
2019-04-29T16:22:13.062Z,99.90
2019-04-29T16:24:39.778Z,99.90
2019-04-29T16:27:10.530Z,99.90
2019-04-29T16:29:40.570Z,99.90
2019-04-29T16:32:11.841Z,99.90
2019-04-29T16:34:44.775Z,99.90
2019-04-29T16:37:19.050Z,99.90
2019-04-29T16:39:44.873Z,99.90
2019-04-29T16:42:18.928Z,99.90
2019-04-29T16:44:49.079Z,99.90
2019-04-29T16:47:19.276Z,99.90
2019-04-29T16:49:48.923Z,99.90
2019-04-29T16:52:18.665Z,99.90
2019-04-29T16:54:48.210Z,99.90
2019-04-29T16:57:17.874Z,99.90
2019-04-29T16:59:47.426Z,99.90
2019-04-29T17:02:19.627Z,99.90
2019-04-29T17:04:49.654Z,99.90
2019-04-29T17:07:19.281Z,99.90
2019-04-29T17:09:51.011Z,99.90
2019-04-29T17:12:20.651Z,99.90
2019-04-29T17:15:04.227Z,99.90
2019-04-29T17:17:28.921Z,99.90
2019-04-29T17:19:55.225Z,99.90
2019-04-29T17:22:27.180Z,99.90
2019-04-29T17:24:56.234Z,99.90
2019-04-29T17:27:35.103Z,99.90
2019-04-29T17:30:18.837Z,99.90
2019-04-29T17:32:50.831Z,99.90
2019-04-29T17:35:22.214Z,99.90
2019-04-29T17:37:52.520Z,99.90
2019-04-29T17:40:23.776Z,99.90
2019-04-29T17:42:55.020Z,99.90
2019-04-29T17:45:30.843Z,99.90
2019-04-29T17:47:59.224Z,99.90
2019-04-29T17:50:39.211Z,99.90
2019-04-29T17:53:09.482Z,99.90
2019-04-29T17:55:41.106Z,99.90
2019-04-29T17:58:19.774Z,99.90
2019-04-29T18:01:07.968Z,99.90
2019-04-29T18:03:51.354Z,99.90
2019-04-29T18:06:24.210Z,99.90
2019-04-29T18:09:12.115Z,99.90
2019-04-29T18:11:50.478Z,99.90
2019-04-29T18:14:14.966Z,99.90
2019-04-29T18:16:47.851Z,99.90
2019-04-29T18:19:17.771Z,99.90
2019-04-29T18:22:01.540Z,99.90
2019-04-29T18:24:35.928Z,99.90
2019-04-29T18:27:06.081Z,99.90
2019-04-29T18:29:41.448Z,99.90
2019-04-29T18:32:08.084Z,99.90
2019-04-29T18:34:37.770Z,99.90
2019-04-29T18:37:08.032Z,99.90
2019-04-29T18:39:38.023Z,99.90
2019-04-29T18:42:07.733Z,99.90
2019-04-29T18:44:42.085Z,99.90
2019-04-29T18:47:19.706Z,99.90
2019-04-29T18:49:39.963Z,99.90
2019-04-29T18:52:11.439Z,99.90
2019-04-29T18:54:41.126Z,99.90
2019-04-29T18:57:11.178Z,99.90
2019-04-29T18:59:42.073Z,99.90
2019-04-29T19:02:12.022Z,99.90
2019-04-29T19:04:53.380Z,99.90
2019-04-29T19:07:20.913Z,99.90
2019-04-29T19:09:50.548Z,99.90
2019-04-29T19:12:20.234Z,99.90
2019-04-29T19:14:50.206Z,99.90
2019-04-29T19:17:21.669Z,99.90
2019-04-29T19:19:51.457Z,99.90
2019-04-29T19:22:21.384Z,99.90
2019-04-29T19:24:50.940Z,99.90
2019-04-29T19:27:20.619Z,99.90
2019-04-29T19:29:50.175Z,99.90
2019-04-29T19:32:23.096Z,99.90
2019-04-29T19:34:54.936Z,99.90
2019-04-29T19:37:25.386Z,99.90
2019-04-29T19:39:57.115Z,99.90
2019-04-29T19:42:29.727Z,99.90
2019-04-29T19:44:57.753Z,99.90
2019-04-29T19:47:28.099Z,99.90
2019-04-29T19:49:57.883Z,99.90
2019-04-29T19:52:31.766Z,99.90
2019-04-29T19:55:01.705Z,99.90
2019-04-29T19:57:30.163Z,99.90
2019-04-29T20:00:00.469Z,99.90
2019-04-29T20:02:30.933Z,99.90
2019-04-29T20:05:05.225Z,99.90
2019-04-29T20:07:40.852Z,99.90
2019-04-29T20:10:10.077Z,99.90
2019-04-29T20:12:39.495Z,99.90
2019-04-29T20:15:10.862Z,99.90
2019-04-29T20:17:58.803Z,99.90
2019-04-29T20:20:35.062Z,99.90
2019-04-29T20:23:03.313Z,99.90
2019-04-29T20:25:38.072Z,99.90
2019-04-29T20:28:08.067Z,99.90
2019-04-29T20:30:35.882Z,99.90
2019-04-29T20:33:11.085Z,99.90
2019-04-29T20:35:40.394Z,99.90
2019-04-29T20:38:09.302Z,99.90
2019-04-29T20:40:43.029Z,99.90
2019-04-29T20:43:10.902Z,99.90
2019-04-29T20:45:40.545Z,99.90
2019-04-29T20:48:11.183Z,99.90
2019-04-29T20:50:46.108Z,99.90
2019-04-29T20:53:15.606Z,99.90
2019-04-29T20:55:46.209Z,99.90
2019-04-29T20:58:16.021Z,99.90
2019-04-29T21:00:45.986Z,99.90
2019-04-29T21:03:27.289Z,99.90
2019-04-29T21:05:50.233Z,99.90
2019-04-29T21:08:19.566Z,99.90
2019-04-29T21:10:51.010Z,99.90
2019-04-29T21:13:25.737Z,99.90
2019-04-29T21:16:06.084Z,99.90
2019-04-29T21:18:38.720Z,99.90
2019-04-29T21:21:08.388Z,99.90
2019-04-29T21:23:38.732Z,99.90
2019-04-29T21:26:09.725Z,99.90
2019-04-29T21:28:41.794Z,99.90
2019-04-29T21:31:11.658Z,99.90
2019-04-29T21:33:46.058Z,99.90
2019-04-29T21:36:18.316Z,99.90
2019-04-29T21:39:06.143Z,99.90
2019-04-29T21:41:43.487Z,99.90
2019-04-29T21:44:13.057Z,99.90
2019-04-29T21:46:42.739Z,99.90
2019-04-29T21:49:12.743Z,99.90
2019-04-29T21:51:48.440Z,99.90
2019-04-29T21:54:15.704Z,99.90
2019-04-29T21:56:47.998Z,99.90
2019-04-29T21:59:16.913Z,99.90
2019-04-29T22:01:47.132Z,99.90
2019-04-29T22:04:16.785Z,99.90
2019-04-29T22:06:47.481Z,99.90
2019-04-29T22:09:19.598Z,99.90
2019-04-29T22:11:49.652Z,99.90
2019-04-29T22:14:26.742Z,99.90
2019-04-29T22:16:57.107Z,99.90
2019-04-29T22:19:28.238Z,99.90
2019-04-29T22:22:01.523Z,99.90
2019-04-29T22:24:29.229Z,99.90
2019-04-29T22:27:03.772Z,99.90
2019-04-29T22:29:31.975Z,99.90
2019-04-29T22:32:07.558Z,99.90
2019-04-29T22:34:36.629Z,99.90
2019-04-29T22:37:11.848Z,99.90
2019-04-29T22:39:41.434Z,99.90
2019-04-29T22:42:12.740Z,99.90
2019-04-29T22:44:42.311Z,99.90
2019-04-29T22:47:12.407Z,99.90
2019-04-29T22:49:42.036Z,99.90
2019-04-29T22:52:11.605Z,99.90
2019-04-29T22:54:41.275Z,99.90
2019-04-29T22:57:11.187Z,99.90
2019-04-29T22:59:40.855Z,99.90
2019-04-29T23:02:13.051Z,99.90
2019-04-29T23:04:49.083Z,99.90
2019-04-29T23:07:17.698Z,99.90
2019-04-29T23:09:46.383Z,99.90
2019-04-29T23:12:18.636Z,99.90
2019-04-29T23:14:48.525Z,99.90
2019-04-29T23:17:18.149Z,99.90
2019-04-29T23:19:50.642Z,99.90
2019-04-29T23:22:37.708Z,99.90
2019-04-29T23:25:13.467Z,99.90
2019-04-29T23:27:43.136Z,99.90
2019-04-29T23:30:18.164Z,99.90
2019-04-29T23:32:50.896Z,99.90
2019-04-29T23:35:20.564Z,99.90
2019-04-29T23:37:50.252Z,99.90
2019-04-29T23:40:19.820Z,99.90
2019-04-29T23:42:49.820Z,99.90
2019-04-29T23:45:20.957Z,99.90
2019-04-29T23:47:50.759Z,99.90
2019-04-29T23:50:20.448Z,99.90
2019-04-29T23:52:51.757Z,99.90
2019-04-29T23:55:25.645Z,99.90
2019-04-29T23:58:02.852Z,99.90
